Roubaix, South Dakota
Current Conditions -  °F | °C
As of 10:15 PM on Saturday 25 Oct 2014 (Local Time) from KSPF Reporting Station
Clear Clear  
Wind Chill: 70°   Ceiling: Unl
Heat Index: 70°   Visibility: 10mi
Dew Point: 32°   Wind: 21mph
Humidity: 25%   Direction: 210°SSW
Pressure: 29.79"   Gusts: 30mph
Location:  44.2665°N, 103.672°W
Report Text: KSPF 260415Z AUTO 21018G26KT 10SM CLR 21/00 A2979 RMK AO2
Loading
Personal Weather Stations






























Interactive Weather Map
Tropical Storm Tracking
New forecast layout! Learn more

10-Day Weather Forecast

Advertisements
Track Severe Weather on mobile